sensor_id;sensor_type;location;lat;lon;timestamp;pressure;altitude;pressure_sealevel;temperature;humidity
75549;BME280;64133;56.002;37.208;2022-11-15T00:02:33;99730.30;;;-0.83;57.02
75549;BME280;64133;56.002;37.208;2022-11-15T00:07:38;99720.52;;;-0.87;56.97
75549;BME280;64133;56.002;37.208;2022-11-15T00:12:43;99716.72;;;-0.90;56.45
75549;BME280;64133;56.002;37.208;2022-11-15T00:17:50;99712.62;;;-0.82;56.92
75549;BME280;64133;56.002;37.208;2022-11-15T00:22:55;99708.34;;;-0.98;56.51
75549;BME280;64133;56.002;37.208;2022-11-15T00:28:00;99702.97;;;-0.92;56.84
75549;BME280;64133;56.002;37.208;2022-11-15T00:33:06;99698.76;;;-0.94;56.95
75549;BME280;64133;56.002;37.208;2022-11-15T00:38:10;99696.63;;;-0.95;57.39
75549;BME280;64133;56.002;37.208;2022-11-15T00:43:15;99694.56;;;-0.98;57.56
75549;BME280;64133;56.002;37.208;2022-11-15T00:48:20;99687.87;;;-1.06;57.92
75549;BME280;64133;56.002;37.208;2022-11-15T00:53:25;99689.34;;;-0.97;57.69
75549;BME280;64133;56.002;37.208;2022-11-15T00:58:30;99677.14;;;-1.07;58.18
75549;BME280;64133;56.002;37.208;2022-11-15T01:03:38;99665.25;;;-1.12;58.07
75549;BME280;64133;56.002;37.208;2022-11-15T01:08:43;99655.16;;;-1.07;58.53
75549;BME280;64133;56.002;37.208;2022-11-15T01:13:48;99650.19;;;-1.13;58.59
75549;BME280;64133;56.002;37.208;2022-11-15T01:18:53;99644.26;;;-1.16;58.75
75549;BME280;64133;56.002;37.208;2022-11-15T01:23:58;99646.02;;;-1.18;58.73
75549;BME280;64133;56.002;37.208;2022-11-15T01:29:02;99641.11;;;-1.26;58.79
75549;BME280;64133;56.002;37.208;2022-11-15T01:34:07;99637.56;;;-1.23;58.84
75549;BME280;64133;56.002;37.208;2022-11-15T01:39:12;99635.31;;;-1.34;58.91
75549;BME280;64133;56.002;37.208;2022-11-15T01:44:42;99638.29;;;-1.33;58.73
75549;BME280;64133;56.002;37.208;2022-11-15T01:49:47;99636.47;;;-1.30;58.83
75549;BME280;64133;56.002;37.208;2022-11-15T01:54:52;99636.22;;;-1.22;58.76
75549;BME280;64133;56.002;37.208;2022-11-15T01:59:56;99635.80;;;-1.21;58.75
75549;BME280;64133;56.002;37.208;2022-11-15T02:05:01;99633.38;;;-1.28;58.99
75549;BME280;64133;56.002;37.208;2022-11-15T02:10:08;99618.58;;;-1.22;59.06
75549;BME280;64133;56.002;37.208;2022-11-15T02:15:12;99627.73;;;-1.25;59.04
75549;BME280;64133;56.002;37.208;2022-11-15T02:25:56;99629.95;;;-1.28;59.11
75549;BME280;64133;56.002;37.208;2022-11-15T02:31:02;99636.08;;;-1.31;59.17
75549;BME280;64133;56.002;37.208;2022-11-15T02:36:09;99619.38;;;-1.35;59.04
75549;BME280;64133;56.002;37.208;2022-11-15T02:41:13;99610.92;;;-1.40;59.34
75549;BME280;64133;56.002;37.208;2022-11-15T02:46:18;99613.48;;;-1.39;59.31
75549;BME280;64133;56.002;37.208;2022-11-15T02:51:22;99606.84;;;-1.47;59.49
75549;BME280;64133;56.002;37.208;2022-11-15T02:56:27;99604.52;;;-1.42;59.43
75549;BME280;64133;56.002;37.208;2022-11-15T03:01:37;99600.73;;;-1.45;59.50
75549;BME280;64133;56.002;37.208;2022-11-15T03:06:43;99581.88;;;-1.48;59.26
75549;BME280;64133;56.002;37.208;2022-11-15T03:11:48;99572.11;;;-1.52;59.64
75549;BME280;64133;56.002;37.208;2022-11-15T03:16:54;99565.59;;;-1.50;59.75
75549;BME280;64133;56.002;37.208;2022-11-15T03:21:59;99572.76;;;-1.45;59.44
75549;BME280;64133;56.002;37.208;2022-11-15T03:27:03;99570.38;;;-1.52;59.24
75549;BME280;64133;56.002;37.208;2022-11-15T03:32:09;99570.38;;;-1.52;59.41
75549;BME280;64133;56.002;37.208;2022-11-15T03:37:14;99563.91;;;-1.52;59.07
75549;BME280;64133;56.002;37.208;2022-11-15T03:42:21;99566.38;;;-1.48;58.74
75549;BME280;64133;56.002;37.208;2022-11-15T03:47:27;99555.41;;;-1.55;58.84
75549;BME280;64133;56.002;37.208;2022-11-15T03:52:32;99554.59;;;-1.57;58.54
75549;BME280;64133;56.002;37.208;2022-11-15T03:57:37;99550.63;;;-1.54;58.27
75549;BME280;64133;56.002;37.208;2022-11-15T04:02:42;99548.91;;;-1.68;58.16
75549;BME280;64133;56.002;37.208;2022-11-15T04:07:47;99547.88;;;-1.63;58.23
75549;BME280;64133;56.002;37.208;2022-11-15T04:12:52;99546.50;;;-1.60;58.31
75549;BME280;64133;56.002;37.208;2022-11-15T04:17:57;99544.95;;;-1.65;58.34
75549;BME280;64133;56.002;37.208;2022-11-15T04:23:03;99546.58;;;-1.63;58.46
75549;BME280;64133;56.002;37.208;2022-11-15T04:28:25;99540.58;;;-1.63;58.82
75549;BME280;64133;56.002;37.208;2022-11-15T04:33:30;99531.92;;;-1.62;58.96
75549;BME280;64133;56.002;37.208;2022-11-15T04:38:35;99533.67;;;-1.63;58.95
75549;BME280;64133;56.002;37.208;2022-11-15T04:43:39;99528.81;;;-1.59;58.92
75549;BME280;64133;56.002;37.208;2022-11-15T04:48:46;99525.39;;;-1.59;58.52
75549;BME280;64133;56.002;37.208;2022-11-15T04:53:51;99523.42;;;-1.51;58.33
75549;BME280;64133;56.002;37.208;2022-11-15T04:58:56;99519.78;;;-1.59;58.76
75549;BME280;64133;56.002;37.208;2022-11-15T05:04:01;99517.14;;;-1.57;58.41
75549;BME280;64133;56.002;37.208;2022-11-15T05:09:22;99511.44;;;-1.39;58.01
75549;BME280;64133;56.002;37.208;2022-11-15T05:14:27;99500.13;;;-1.49;57.79
75549;BME280;64133;56.002;37.208;2022-11-15T05:19:32;99505.51;;;-1.42;58.21
75549;BME280;64133;56.002;37.208;2022-11-15T05:24:37;99496.22;;;-1.48;58.47
75549;BME280;64133;56.002;37.208;2022-11-15T05:29:42;99494.83;;;-1.32;58.05
75549;BME280;64133;56.002;37.208;2022-11-15T05:34:47;99489.48;;;-1.25;57.42
75549;BME280;64133;56.002;37.208;2022-11-15T05:39:53;99498.47;;;-1.24;56.86
75549;BME280;64133;56.002;37.208;2022-11-15T05:44:57;99493.97;;;-1.17;56.86
75549;BME280;64133;56.002;37.208;2022-11-15T05:50:03;99493.51;;;-1.30;57.58
75549;BME280;64133;56.002;37.208;2022-11-15T05:55:09;99485.25;;;-1.28;58.07
75549;BME280;64133;56.002;37.208;2022-11-15T06:00:14;99474.43;;;-1.26;57.87
75549;BME280;64133;56.002;37.208;2022-11-15T06:05:19;99479.17;;;-1.27;57.74
75549;BME280;64133;56.002;37.208;2022-11-15T06:10:24;99481.97;;;-1.20;57.59
75549;BME280;64133;56.002;37.208;2022-11-15T06:15:29;99474.76;;;-1.23;57.45
75549;BME280;64133;56.002;37.208;2022-11-15T06:20:34;99477.34;;;-1.37;57.82
75549;BME280;64133;56.002;37.208;2022-11-15T06:25:39;99473.70;;;-1.31;57.74
75549;BME280;64133;56.002;37.208;2022-11-15T06:30:44;99463.12;;;-1.23;57.78
75549;BME280;64133;56.002;37.208;2022-11-15T06:35:49;99448.86;;;-1.22;57.39
75549;BME280;64133;56.002;37.208;2022-11-15T06:40:54;99442.76;;;-1.19;57.53
75549;BME280;64133;56.002;37.208;2022-11-15T06:46:00;99439.85;;;-0.97;57.30
75549;BME280;64133;56.002;37.208;2022-11-15T06:51:05;99433.47;;;-1.12;57.09
75549;BME280;64133;56.002;37.208;2022-11-15T06:56:10;99428.53;;;-1.06;57.11
75549;BME280;64133;56.002;37.208;2022-11-15T07:01:15;99426.38;;;-0.93;57.06
75549;BME280;64133;56.002;37.208;2022-11-15T07:06:20;99422.92;;;-0.81;56.47
75549;BME280;64133;56.002;37.208;2022-11-15T07:11:25;99413.48;;;-1.20;56.60
75549;BME280;64133;56.002;37.208;2022-11-15T07:16:30;99411.53;;;-1.13;56.83
75549;BME280;64133;56.002;37.208;2022-11-15T07:21:36;99402.91;;;-1.12;56.88
75549;BME280;64133;56.002;37.208;2022-11-15T07:26:41;99397.19;;;-1.09;57.09
75549;BME280;64133;56.002;37.208;2022-11-15T07:31:46;99397.39;;;-1.28;57.19
75549;BME280;64133;56.002;37.208;2022-11-15T07:36:51;99378.67;;;-1.10;57.81
75549;BME280;64133;56.002;37.208;2022-11-15T07:41:56;99382.63;;;-1.24;57.39
75549;BME280;64133;56.002;37.208;2022-11-15T07:47:20;99382.38;;;-1.17;56.91
75549;BME280;64133;56.002;37.208;2022-11-15T07:52:25;99380.87;;;-1.11;57.06
75549;BME280;64133;56.002;37.208;2022-11-15T07:57:30;99376.09;;;-1.35;57.54
75549;BME280;64133;56.002;37.208;2022-11-15T08:02:35;99368.88;;;-1.00;57.14
75549;BME280;64133;56.002;37.208;2022-11-15T08:07:39;99369.52;;;-0.82;56.40
75549;BME280;64133;56.002;37.208;2022-11-15T08:12:44;99364.98;;;-0.52;56.07
75549;BME280;64133;56.002;37.208;2022-11-15T08:17:53;99359.66;;;-0.84;56.26
75549;BME280;64133;56.002;37.208;2022-11-15T08:22:59;99362.67;;;-0.96;56.52
75549;BME280;64133;56.002;37.208;2022-11-15T08:28:04;99354.67;;;-0.53;55.98
75549;BME280;64133;56.002;37.208;2022-11-15T08:33:11;99360.26;;;-0.64;55.37
75549;BME280;64133;56.002;37.208;2022-11-15T08:38:16;99352.43;;;-0.62;55.33
75549;BME280;64133;56.002;37.208;2022-11-15T08:48:37;99343.27;;;-0.59;55.31
75549;BME280;64133;56.002;37.208;2022-11-15T08:53:42;99338.17;;;-0.61;55.38
75549;BME280;64133;56.002;37.208;2022-11-15T08:58:47;99333.89;;;-0.73;55.73
75549;BME280;64133;56.002;37.208;2022-11-15T09:03:52;99330.77;;;-0.48;55.23
75549;BME280;64133;56.002;37.208;2022-11-15T09:08:57;99324.89;;;-0.52;54.96
75549;BME280;64133;56.002;37.208;2022-11-15T09:14:02;99305.87;;;-0.62;55.07
75549;BME280;64133;56.002;37.208;2022-11-15T09:19:07;99309.14;;;-0.81;55.54
75549;BME280;64133;56.002;37.208;2022-11-15T09:24:12;99302.61;;;-0.79;55.42
75549;BME280;64133;56.002;37.208;2022-11-15T09:29:17;99302.44;;;-0.74;55.38
75549;BME280;64133;56.002;37.208;2022-11-15T09:34:22;99303.45;;;-0.43;55.01
75549;BME280;64133;56.002;37.208;2022-11-15T09:39:27;99309.32;;;-0.28;54.66
75549;BME280;64133;56.002;37.208;2022-11-15T09:44:55;99305.05;;;-0.29;54.69
75549;BME280;64133;56.002;37.208;2022-11-15T09:49:58;99305.48;;;-0.63;55.43
75549;BME280;64133;56.002;37.208;2022-11-15T09:55:03;99295.44;;;-0.37;54.98
75549;BME280;64133;56.002;37.208;2022-11-15T10:00:12;99289.98;;;-0.87;55.68
75549;BME280;64133;56.002;37.208;2022-11-15T10:05:18;99291.08;;;-0.47;55.09
75549;BME280;64133;56.002;37.208;2022-11-15T10:10:25;99282.83;;;-0.68;55.21
75549;BME280;64133;56.002;37.208;2022-11-15T10:15:29;99268.71;;;-0.83;55.43
75549;BME280;64133;56.002;37.208;2022-11-15T10:20:37;99262.73;;;-0.95;55.88
75549;BME280;64133;56.002;37.208;2022-11-15T10:25:39;99254.97;;;-0.95;56.18
75549;BME280;64133;56.002;37.208;2022-11-15T10:30:44;99253.37;;;-0.88;55.43
75549;BME280;64133;56.002;37.208;2022-11-15T10:35:49;99247.64;;;-0.84;55.40
75549;BME280;64133;56.002;37.208;2022-11-15T10:41:06;99243.59;;;-0.80;55.32
75549;BME280;64133;56.002;37.208;2022-11-15T10:46:04;99228.63;;;-0.71;55.59
75549;BME280;64133;56.002;37.208;2022-11-15T10:51:07;99226.92;;;-0.94;55.65
75549;BME280;64133;56.002;37.208;2022-11-15T10:56:12;99224.54;;;-0.77;56.00
75549;BME280;64133;56.002;37.208;2022-11-15T11:01:18;99220.84;;;-0.93;56.09
75549;BME280;64133;56.002;37.208;2022-11-15T11:06:22;99210.63;;;-1.08;56.54
75549;BME280;64133;56.002;37.208;2022-11-15T11:11:43;99204.73;;;-1.00;56.58
75549;BME280;64133;56.002;37.208;2022-11-15T11:16:44;99195.96;;;-1.19;57.72
75549;BME280;64133;56.002;37.208;2022-11-15T11:21:51;99188.16;;;-1.30;58.33
75549;BME280;64133;56.002;37.208;2022-11-15T11:27:03;99179.62;;;-1.20;59.04
75549;BME280;64133;56.002;37.208;2022-11-15T11:32:09;99186.53;;;-1.09;59.46
75549;BME280;64133;56.002;37.208;2022-11-15T11:37:14;99177.63;;;-1.02;59.98
75549;BME280;64133;56.002;37.208;2022-11-15T11:42:18;99178.92;;;-1.13;60.73
75549;BME280;64133;56.002;37.208;2022-11-15T11:47:23;99181.08;;;-1.48;62.05
75549;BME280;64133;56.002;37.208;2022-11-15T11:52:30;99173.60;;;-1.56;62.80
75549;BME280;64133;56.002;37.208;2022-11-15T11:57:39;99164.19;;;-1.82;64.30
75549;BME280;64133;56.002;37.208;2022-11-15T12:02:44;99160.22;;;-1.67;65.34
75549;BME280;64133;56.002;37.208;2022-11-15T12:07:49;99159.84;;;-1.56;65.80
75549;BME280;64133;56.002;37.208;2022-11-15T12:12:58;99149.83;;;-1.77;66.40
75549;BME280;64133;56.002;37.208;2022-11-15T12:18:01;99143.86;;;-1.79;67.64
75549;BME280;64133;56.002;37.208;2022-11-15T12:23:07;99135.25;;;-1.78;69.00
75549;BME280;64133;56.002;37.208;2022-11-15T12:28:13;99131.80;;;-1.79;70.03
75549;BME280;64133;56.002;37.208;2022-11-15T12:33:35;99122.25;;;-1.88;70.51
75549;BME280;64133;56.002;37.208;2022-11-15T12:38:56;99121.61;;;-2.07;71.25
75549;BME280;64133;56.002;37.208;2022-11-15T12:44:01;99115.75;;;-2.37;72.29
75549;BME280;64133;56.002;37.208;2022-11-15T12:49:09;99106.98;;;-2.58;75.07
75549;BME280;64133;56.002;37.208;2022-11-15T12:54:52;99090.05;;;-2.65;75.40
75549;BME280;64133;56.002;37.208;2022-11-15T12:59:57;99090.83;;;-2.63;76.55
75549;BME280;64133;56.002;37.208;2022-11-15T13:10:33;99071.18;;;-2.54;76.29
75549;BME280;64133;56.002;37.208;2022-11-15T13:15:58;99070.27;;;-2.64;77.41
75549;BME280;64133;56.002;37.208;2022-11-15T13:21:03;99058.42;;;-2.45;77.20
75549;BME280;64133;56.002;37.208;2022-11-15T13:26:14;99056.16;;;-2.54;77.00
75549;BME280;64133;56.002;37.208;2022-11-15T13:31:30;99049.42;;;-2.58;77.66
75549;BME280;64133;56.002;37.208;2022-11-15T13:36:35;99039.23;;;-2.49;77.58
75549;BME280;64133;56.002;37.208;2022-11-15T13:41:47;99045.14;;;-2.46;77.50
75549;BME280;64133;56.002;37.208;2022-11-15T13:46:53;99043.42;;;-2.59;78.46
75549;BME280;64133;56.002;37.208;2022-11-15T13:51:59;99035.07;;;-2.65;78.58
75549;BME280;64133;56.002;37.208;2022-11-15T13:57:04;99032.66;;;-2.58;78.86
75549;BME280;64133;56.002;37.208;2022-11-15T14:02:12;99028.34;;;-2.58;78.81
75549;BME280;64133;56.002;37.208;2022-11-15T14:07:19;99030.14;;;-2.60;79.21
75549;BME280;64133;56.002;37.208;2022-11-15T14:12:28;99024.79;;;-2.67;79.09
75549;BME280;64133;56.002;37.208;2022-11-15T14:17:39;99010.42;;;-2.61;79.51
75549;BME280;64133;56.002;37.208;2022-11-15T14:22:53;99010.33;;;-2.46;79.59
75549;BME280;64133;56.002;37.208;2022-11-15T14:28:12;99011.97;;;-2.43;79.43
75549;BME280;64133;56.002;37.208;2022-11-15T14:33:21;99005.72;;;-2.61;80.36
75549;BME280;64133;56.002;37.208;2022-11-15T14:38:25;98997.86;;;-2.58;80.31
75549;BME280;64133;56.002;37.208;2022-11-15T14:43:30;99003.63;;;-2.63;80.52
75549;BME280;64133;56.002;37.208;2022-11-15T14:48:35;98999.98;;;-2.58;81.08
75549;BME280;64133;56.002;37.208;2022-11-15T14:53:40;98993.18;;;-2.47;81.05
75549;BME280;64133;56.002;37.208;2022-11-15T14:58:45;98981.39;;;-2.54;81.77
75549;BME280;64133;56.002;37.208;2022-11-15T15:03:50;98971.59;;;-2.56;81.35
75549;BME280;64133;56.002;37.208;2022-11-15T15:08:56;98970.42;;;-2.47;81.40
75549;BME280;64133;56.002;37.208;2022-11-15T15:14:01;98972.87;;;-2.56;81.37
75549;BME280;64133;56.002;37.208;2022-11-15T15:19:06;98968.44;;;-2.64;81.54
75549;BME280;64133;56.002;37.208;2022-11-15T15:34:31;98942.90;;;-2.47;81.77
75549;BME280;64133;56.002;37.208;2022-11-15T15:39:35;98944.79;;;-2.40;81.10
75549;BME280;64133;56.002;37.208;2022-11-15T15:44:41;98932.02;;;-2.55;81.28
75549;BME280;64133;56.002;37.208;2022-11-15T15:49:46;98924.05;;;-2.49;81.43
75549;BME280;64133;56.002;37.208;2022-11-15T15:54:51;98923.53;;;-2.35;81.62
75549;BME280;64133;56.002;37.208;2022-11-15T15:59:56;98916.97;;;-2.44;81.68
75549;BME280;64133;56.002;37.208;2022-11-15T16:05:01;98911.72;;;-2.41;82.08
75549;BME280;64133;56.002;37.208;2022-11-15T16:10:15;98905.55;;;-2.37;81.96
75549;BME280;64133;56.002;37.208;2022-11-15T16:15:20;98908.65;;;-2.39;82.29
75549;BME280;64133;56.002;37.208;2022-11-15T16:20:36;98898.05;;;-2.43;82.47
75549;BME280;64133;56.002;37.208;2022-11-15T16:25:41;98896.80;;;-2.44;82.71
75549;BME280;64133;56.002;37.208;2022-11-15T16:30:46;98897.63;;;-2.44;83.16
75549;BME280;64133;56.002;37.208;2022-11-15T16:35:50;98887.91;;;-2.47;82.56
75549;BME280;64133;56.002;37.208;2022-11-15T16:40:56;98890.52;;;-2.49;82.67
75549;BME280;64133;56.002;37.208;2022-11-15T16:46:01;98883.02;;;-2.55;82.88
75549;BME280;64133;56.002;37.208;2022-11-15T16:51:06;98892.12;;;-2.57;83.29
75549;BME280;64133;56.002;37.208;2022-11-15T16:56:17;98884.13;;;-2.62;82.78
75549;BME280;64133;56.002;37.208;2022-11-15T17:01:23;98878.88;;;-2.59;82.65
75549;BME280;64133;56.002;37.208;2022-11-15T17:06:27;98873.61;;;-2.56;83.39
75549;BME280;64133;56.002;37.208;2022-11-15T17:11:32;98870.13;;;-2.55;83.43
75549;BME280;64133;56.002;37.208;2022-11-15T17:16:37;98874.17;;;-2.60;83.08
75549;BME280;64133;56.002;37.208;2022-11-15T17:26:56;98874.10;;;-2.58;83.39
75549;BME280;64133;56.002;37.208;2022-11-15T17:32:01;98874.34;;;-2.64;83.17
75549;BME280;64133;56.002;37.208;2022-11-15T17:37:06;98866.09;;;-2.62;83.38
75549;BME280;64133;56.002;37.208;2022-11-15T17:42:11;98865.80;;;-2.66;83.15
75549;BME280;64133;56.002;37.208;2022-11-15T17:47:16;98865.98;;;-2.59;83.28
75549;BME280;64133;56.002;37.208;2022-11-15T17:52:21;98861.11;;;-2.55;83.83
75549;BME280;64133;56.002;37.208;2022-11-15T17:57:26;98861.62;;;-2.69;83.60
75549;BME280;64133;56.002;37.208;2022-11-15T18:02:31;98859.08;;;-2.70;83.79
75549;BME280;64133;56.002;37.208;2022-11-15T18:07:36;98848.77;;;-2.70;83.84
75549;BME280;64133;56.002;37.208;2022-11-15T18:12:41;98849.00;;;-2.76;83.88
75549;BME280;64133;56.002;37.208;2022-11-15T18:17:46;98841.22;;;-2.87;84.13
75549;BME280;64133;56.002;37.208;2022-11-15T18:22:53;98835.16;;;-2.86;84.42
75549;BME280;64133;56.002;37.208;2022-11-15T18:27:58;98840.08;;;-2.80;84.26
75549;BME280;64133;56.002;37.208;2022-11-15T18:33:03;98837.95;;;-2.80;84.21
75549;BME280;64133;56.002;37.208;2022-11-15T18:38:08;98842.32;;;-2.70;84.09
75549;BME280;64133;56.002;37.208;2022-11-15T18:43:13;98830.17;;;-2.67;84.17
75549;BME280;64133;56.002;37.208;2022-11-15T18:48:18;98827.61;;;-2.79;83.81
75549;BME280;64133;56.002;37.208;2022-11-15T18:53:23;98827.81;;;-2.85;84.55
75549;BME280;64133;56.002;37.208;2022-11-15T18:58:30;98826.70;;;-2.89;84.72
75549;BME280;64133;56.002;37.208;2022-11-15T19:03:36;98817.89;;;-2.84;84.66
75549;BME280;64133;56.002;37.208;2022-11-15T19:08:40;98820.16;;;-2.86;84.75
75549;BME280;64133;56.002;37.208;2022-11-15T19:13:45;98820.98;;;-2.86;84.61
75549;BME280;64133;56.002;37.208;2022-11-15T19:18:52;98815.94;;;-2.89;84.92
75549;BME280;64133;56.002;37.208;2022-11-15T19:23:57;98811.75;;;-2.91;84.94
75549;BME280;64133;56.002;37.208;2022-11-15T19:29:02;98815.33;;;-2.95;85.32
75549;BME280;64133;56.002;37.208;2022-11-15T19:34:10;98809.73;;;-2.95;85.14
75549;BME280;64133;56.002;37.208;2022-11-15T19:39:15;98802.05;;;-3.08;85.42
75549;BME280;64133;56.002;37.208;2022-11-15T19:44:20;98810.39;;;-3.13;85.42
75549;BME280;64133;56.002;37.208;2022-11-15T19:49:25;98810.63;;;-2.96;85.71
75549;BME280;64133;56.002;37.208;2022-11-15T19:54:30;98802.72;;;-3.03;85.24
75549;BME280;64133;56.002;37.208;2022-11-15T19:59:35;98806.02;;;-3.11;85.29
75549;BME280;64133;56.002;37.208;2022-11-15T20:04:39;98797.94;;;-3.14;85.54
75549;BME280;64133;56.002;37.208;2022-11-15T20:09:44;98796.65;;;-3.14;85.48
75549;BME280;64133;56.002;37.208;2022-11-15T20:14:49;98795.14;;;-3.19;85.32
75549;BME280;64133;56.002;37.208;2022-11-15T20:19:54;98796.49;;;-3.21;85.32
75549;BME280;64133;56.002;37.208;2022-11-15T20:24:59;98802.38;;;-3.17;85.49
75549;BME280;64133;56.002;37.208;2022-11-15T20:30:06;98795.83;;;-3.02;85.42
75549;BME280;64133;56.002;37.208;2022-11-15T20:35:11;98798.39;;;-3.14;85.46
75549;BME280;64133;56.002;37.208;2022-11-15T20:40:16;98792.08;;;-3.17;85.37
75549;BME280;64133;56.002;37.208;2022-11-15T20:45:21;98797.27;;;-3.19;85.60
75549;BME280;64133;56.002;37.208;2022-11-15T20:50:26;98797.05;;;-3.24;85.59
75549;BME280;64133;56.002;37.208;2022-11-15T20:55:31;98801.64;;;-3.21;85.58
75549;BME280;64133;56.002;37.208;2022-11-15T21:00:36;98792.08;;;-3.17;85.56
75549;BME280;64133;56.002;37.208;2022-11-15T21:05:42;98791.89;;;-3.24;85.62
75549;BME280;64133;56.002;37.208;2022-11-15T21:10:47;98797.43;;;-3.23;85.36
75549;BME280;64133;56.002;37.208;2022-11-15T21:16:09;98794.41;;;-3.23;85.41
75549;BME280;64133;56.002;37.208;2022-11-15T21:21:14;98791.67;;;-3.30;85.37
75549;BME280;64133;56.002;37.208;2022-11-15T21:26:18;98796.53;;;-3.22;85.40
75549;BME280;64133;56.002;37.208;2022-11-15T21:31:23;98789.70;;;-3.23;85.29
75549;BME280;64133;56.002;37.208;2022-11-15T21:36:29;98793.23;;;-3.14;85.60
75549;BME280;64133;56.002;37.208;2022-11-15T21:41:34;98789.11;;;-3.07;85.38
75549;BME280;64133;56.002;37.208;2022-11-15T21:46:39;98789.72;;;-3.12;85.22
75549;BME280;64133;56.002;37.208;2022-11-15T21:51:44;98794.94;;;-3.13;85.28
75549;BME280;64133;56.002;37.208;2022-11-15T21:56:49;98796.08;;;-3.34;85.33
75549;BME280;64133;56.002;37.208;2022-11-15T22:01:54;98791.03;;;-3.37;85.45
75549;BME280;64133;56.002;37.208;2022-11-15T22:07:17;98797.14;;;-3.39;85.46
75549;BME280;64133;56.002;37.208;2022-11-15T22:12:22;98792.64;;;-3.46;85.20
75549;BME280;64133;56.002;37.208;2022-11-15T22:17:26;98792.70;;;-3.36;85.51
75549;BME280;64133;56.002;37.208;2022-11-15T22:22:31;98795.08;;;-3.30;85.41
75549;BME280;64133;56.002;37.208;2022-11-15T22:27:36;98785.23;;;-3.30;85.33
75549;BME280;64133;56.002;37.208;2022-11-15T22:32:41;98783.20;;;-3.34;85.15
75549;BME280;64133;56.002;37.208;2022-11-15T22:37:46;98780.41;;;-3.39;85.45
75549;BME280;64133;56.002;37.208;2022-11-15T22:42:51;98778.16;;;-3.37;84.83
75549;BME280;64133;56.002;37.208;2022-11-15T22:47:56;98785.55;;;-3.39;84.89
75549;BME280;64133;56.002;37.208;2022-11-15T22:53:01;98781.92;;;-3.34;85.21
75549;BME280;64133;56.002;37.208;2022-11-15T22:58:06;98783.56;;;-3.44;84.80
75549;BME280;64133;56.002;37.208;2022-11-15T23:03:12;98776.61;;;-3.54;85.13
75549;BME280;64133;56.002;37.208;2022-11-15T23:08:17;98778.64;;;-3.50;85.05
75549;BME280;64133;56.002;37.208;2022-11-15T23:13:22;98789.29;;;-3.48;84.83
75549;BME280;64133;56.002;37.208;2022-11-15T23:18:27;98785.14;;;-3.52;85.05
75549;BME280;64133;56.002;37.208;2022-11-15T23:23:32;98778.86;;;-3.45;85.24
75549;BME280;64133;56.002;37.208;2022-11-15T23:28:37;98792.16;;;-3.44;85.16
75549;BME280;64133;56.002;37.208;2022-11-15T23:33:42;98787.33;;;-3.41;85.00
75549;BME280;64133;56.002;37.208;2022-11-15T23:39:02;98793.22;;;-3.38;84.90
75549;BME280;64133;56.002;37.208;2022-11-15T23:44:07;98795.44;;;-3.40;85.07
75549;BME280;64133;56.002;37.208;2022-11-15T23:49:12;98798.36;;;-3.38;84.66
75549;BME280;64133;56.002;37.208;2022-11-15T23:54:17;98799.39;;;-3.55;84.88
75549;BME280;64133;56.002;37.208;2022-11-15T23:59:22;98790.28;;;-3.52;85.02
